CheckWX is a tool to help pilots better visualize weather data.  It is not intended as a substitute for an official pre-flight weather briefing.

08:56:47 UTC

KHOB TAF
Lea County Regional Airport
Hobbs, New Mexico, USA
KHOB 241120Z 2412/2512 18009KT P6SM SKC FM242300 21014KT P6SM FEW200 FM250400 14009KT P6SM FEW200

May-24@
12:00 UTC

May-24 @ 12:00 UTC

May-24@
23:00 UTC

May-24 @ 23:00 UTC

TAF KHOB 241120Z 2412/2512 18009KT P6SM SKC

Expired

Wind
  • 180° at 9 KTS
Cloud Levels
  • Clear skies

May-24@
23:00 UTC

May-24 @ 23:00 UTC

May-25@
04:00 UTC

May-25 @ 04:00 UTC

FM242300 21014KT P6SM FEW200

Expired

Wind
  • 210° at 14 KTS
Cloud Levels
  • Few at 20,000' AGL

May-25@
04:00 UTC

May-25 @ 04:00 UTC

May-25@
12:00 UTC

May-25 @ 12:00 UTC

FM250400 14009KT P6SM FEW200

From

From Standard forecast or significant change

Wind
  • 140° at 9 KTS
Cloud Levels
  • Few at 20,000' AGL